createdAt,value
2022-09-26T08:36:32.853Z,15.28
2022-09-26T08:39:00.802Z,15.62
2022-09-26T08:41:48.194Z,15.03
2022-09-26T08:44:37.776Z,15.14
2022-09-26T08:47:17.668Z,14.94
2022-09-26T08:50:00.017Z,14.78
2022-09-26T08:52:34.308Z,15.58
2022-09-26T08:55:08.509Z,15.58
2022-09-26T08:57:42.363Z,16.51
2022-09-26T09:00:20.175Z,15.71
2022-09-26T09:03:01.232Z,16.07
2022-09-26T09:05:32.843Z,15.82
2022-09-26T09:08:07.893Z,15.36
2022-09-26T09:10:45.920Z,15.66
2022-09-26T09:13:32.100Z,16.44
2022-09-26T09:16:12.110Z,16.22
2022-09-26T09:18:52.483Z,15.33
2022-09-26T09:21:29.948Z,15.83
2022-09-26T09:24:17.283Z,16.66
2022-09-26T09:30:04.032Z,16.36
2022-09-26T09:32:49.841Z,15.76
2022-09-26T09:35:22.083Z,14.96
2022-09-26T09:37:53.351Z,15.19
2022-09-26T09:40:28.981Z,15.41
2022-09-26T09:43:03.821Z,14.63
2022-09-26T09:45:44.887Z,15.03
2022-09-26T09:48:13.653Z,15.35
2022-09-26T09:50:51.110Z,14.71
2022-09-26T09:53:35.789Z,15.34
2022-09-26T09:56:15.604Z,15.85
2022-09-26T09:58:56.397Z,15.87
2022-09-26T10:01:28.093Z,15.44
2022-09-26T10:04:04.599Z,16.04
2022-09-26T10:06:45.343Z,15.92
2022-09-26T10:09:35.349Z,15.91
2022-09-26T10:12:16.655Z,15.86
2022-09-26T10:14:51.002Z,15.61
2022-09-26T10:17:22.453Z,16.03
2022-09-26T10:19:50.524Z,15.94
2022-09-26T10:22:26.125Z,16.58
2022-09-26T10:25:00.856Z,15.68
2022-09-26T10:27:37.663Z,15.33
2022-09-26T10:30:22.492Z,15.86
2022-09-26T10:32:56.535Z,16.14
2022-09-26T10:35:26.341Z,15.76
2022-09-26T10:38:01.290Z,15.38
2022-09-26T10:40:45.365Z,15.60
2022-09-26T10:43:30.546Z,15.39
2022-09-26T10:46:05.764Z,15.36
2022-09-26T10:48:48.279Z,16.10
2022-09-26T10:51:21.042Z,16.79
2022-09-26T10:53:52.927Z,15.58
2022-09-26T10:56:26.920Z,15.98
2022-09-26T10:59:01.388Z,16.49
2022-09-26T11:01:31.782Z,16.23
2022-09-26T11:04:14.137Z,16.27
2022-09-26T11:06:44.079Z,16.60
2022-09-26T11:09:14.152Z,16.34
2022-09-26T11:11:43.847Z,15.91
2022-09-26T11:14:28.261Z,15.74
2022-09-26T11:16:57.224Z,16.03
2022-09-26T11:19:32.333Z,15.52
2022-09-26T11:22:08.234Z,15.35
2022-09-26T11:24:45.574Z,15.51
2022-09-26T11:27:22.323Z,15.14
2022-09-26T11:29:56.535Z,14.83
2022-09-26T11:32:30.282Z,15.31
2022-09-26T11:35:02.554Z,14.89
2022-09-26T11:37:52.926Z,15.02
2022-09-26T11:40:49.952Z,14.78
2022-09-26T11:43:36.113Z,15.24
2022-09-26T11:46:23.461Z,15.04
2022-09-26T11:49:10.558Z,15.37
2022-09-26T11:51:54.142Z,14.98
2022-09-26T11:54:46.818Z,15.00
2022-09-26T11:57:32.962Z,14.51
2022-09-26T12:00:12.001Z,14.34
2022-09-26T12:02:57.911Z,14.69
2022-09-26T12:05:36.453Z,14.25
2022-09-26T12:08:17.537Z,14.82
2022-09-26T12:10:56.680Z,14.54
2022-09-26T12:13:38.813Z,15.11
2022-09-26T12:16:14.472Z,14.64
2022-09-26T12:18:54.780Z,14.43
2022-09-26T12:21:32.532Z,14.63
2022-09-26T12:24:07.975Z,14.48
2022-09-26T12:26:46.439Z,15.22
2022-09-26T12:29:25.767Z,15.33
2022-09-26T12:32:06.234Z,14.85
2022-09-26T12:35:07.132Z,14.45
2022-09-26T12:37:57.307Z,14.99
2022-09-26T12:40:36.122Z,14.95
2022-09-26T12:43:27.952Z,14.99
2022-09-26T12:46:27.268Z,15.58
2022-09-26T12:49:09.111Z,14.98
2022-09-26T12:51:46.470Z,15.53
2022-09-26T12:54:38.310Z,15.02
2022-09-26T12:57:11.298Z,14.99
2022-09-26T13:00:05.894Z,14.95
2022-09-26T13:02:51.335Z,15.16
2022-09-26T13:05:33.340Z,15.03
2022-09-26T13:08:11.637Z,15.12
2022-09-26T13:10:52.338Z,15.15
2022-09-26T13:13:46.842Z,14.61
2022-09-26T13:16:25.075Z,14.95
2022-09-26T13:18:57.627Z,15.04
2022-09-26T13:21:41.196Z,15.52
2022-09-26T13:24:18.473Z,14.67
2022-09-26T13:26:52.941Z,15.22
2022-09-26T13:29:27.369Z,15.31
2022-09-26T13:32:02.817Z,15.23
2022-09-26T13:34:37.523Z,14.97
2022-09-26T13:37:11.832Z,15.15
2022-09-26T13:39:52.268Z,15.32
2022-09-26T13:42:27.750Z,14.96
2022-09-26T13:45:02.243Z,14.55
2022-09-26T13:47:42.545Z,14.97
2022-09-26T13:50:23.298Z,14.39
2022-09-26T13:53:06.663Z,14.51
2022-09-26T13:55:36.372Z,14.04
2022-09-26T13:58:07.824Z,14.43
2022-09-26T14:00:49.142Z,14.07
2022-09-26T14:03:42.620Z,14.17
2022-09-26T14:06:34.213Z,14.14
2022-09-26T14:09:25.849Z,14.10
2022-09-26T14:12:20.055Z,13.95
2022-09-26T14:14:53.228Z,13.81
2022-09-26T14:18:08.634Z,13.65
2022-09-26T14:20:55.143Z,14.10
2022-09-26T14:23:40.019Z,14.00
2022-09-26T14:26:28.355Z,14.52
2022-09-26T14:29:12.947Z,14.32
2022-09-26T14:31:41.715Z,14.45
2022-09-26T14:34:27.870Z,14.10
2022-09-26T14:37:04.985Z,14.51
2022-09-26T14:39:43.636Z,13.58
2022-09-26T14:42:18.737Z,13.79
2022-09-26T14:44:56.201Z,13.83
2022-09-26T14:47:25.872Z,13.76
2022-09-26T14:50:00.412Z,13.71
2022-09-26T14:52:28.543Z,13.93
2022-09-26T14:55:01.395Z,13.81
2022-09-26T14:57:32.258Z,13.92
2022-09-26T15:00:02.719Z,14.12
2022-09-26T15:02:40.588Z,14.23
2022-09-26T15:05:19.817Z,14.02
2022-09-26T15:07:49.956Z,14.05
2022-09-26T15:10:38.279Z,14.14
2022-09-26T15:13:18.153Z,13.72
2022-09-26T15:15:57.429Z,13.90
2022-09-26T15:18:34.575Z,13.35
2022-09-26T15:21:10.673Z,13.58
2022-09-26T15:23:49.246Z,13.54
2022-09-26T15:26:19.729Z,13.64
2022-09-26T15:28:50.404Z,13.55
2022-09-26T15:31:28.684Z,13.74
2022-09-26T15:34:01.366Z,13.38
2022-09-26T15:36:31.206Z,13.91
2022-09-26T15:39:00.040Z,13.62
2022-09-26T15:41:50.747Z,13.57
2022-09-26T15:44:23.931Z,13.64
2022-09-26T15:46:53.160Z,13.59
2022-09-26T15:49:24.434Z,13.43
2022-09-26T15:51:55.367Z,13.15
2022-09-26T15:54:28.683Z,13.49
2022-09-26T15:57:00.573Z,13.49
2022-09-26T15:59:34.661Z,13.30
2022-09-26T16:02:22.542Z,13.41
2022-09-26T16:04:52.855Z,13.36
2022-09-26T16:07:25.213Z,13.44
2022-09-26T16:09:53.779Z,13.40
2022-09-26T16:12:24.036Z,13.32
2022-09-26T16:14:54.832Z,13.09
2022-09-26T16:17:27.105Z,12.95
2022-09-26T16:19:56.862Z,13.55
2022-09-26T16:22:44.911Z,13.35
2022-09-26T16:25:32.545Z,12.65
2022-09-26T16:28:17.641Z,13.50
2022-09-26T16:30:52.915Z,13.27
2022-09-26T16:33:30.742Z,13.27
2022-09-26T16:36:06.153Z,13.40
2022-09-26T16:38:35.825Z,13.15
2022-09-26T16:41:08.963Z,13.25
2022-09-26T16:43:38.993Z,13.47
2022-09-26T16:46:09.680Z,12.95
2022-09-26T16:48:41.623Z,13.24
2022-09-26T16:51:15.244Z,13.46
2022-09-26T16:53:45.495Z,13.39
2022-09-26T16:56:15.411Z,13.73
2022-09-26T16:58:49.490Z,13.37
2022-09-26T17:01:36.102Z,13.23
2022-09-26T17:04:06.047Z,13.31
2022-09-26T17:06:35.151Z,13.42
2022-09-26T17:09:08.883Z,13.32
2022-09-26T17:11:37.082Z,13.45
2022-09-26T17:14:05.032Z,13.23
2022-09-26T17:16:34.289Z,13.30
2022-09-26T17:19:02.227Z,13.11
2022-09-26T17:21:31.436Z,13.27
2022-09-26T17:23:59.292Z,13.20
2022-09-26T17:26:27.104Z,13.00
2022-09-26T17:28:57.193Z,13.44
2022-09-26T17:31:25.080Z,13.71
2022-09-26T17:33:54.712Z,13.79
2022-09-26T17:36:24.215Z,13.42
2022-09-26T17:38:54.652Z,13.34
2022-09-26T17:41:25.210Z,13.34
2022-09-26T17:44:00.057Z,13.17
2022-09-26T17:46:28.935Z,13.22
2022-09-26T17:48:56.830Z,13.18
2022-09-26T17:51:25.479Z,13.00
2022-09-26T17:53:57.375Z,13.02
2022-09-26T17:56:26.341Z,13.17
2022-09-26T17:58:54.242Z,13.11
2022-09-26T18:01:25.491Z,13.35
2022-09-26T18:03:56.937Z,13.27
2022-09-26T18:06:28.109Z,12.81
2022-09-26T18:08:59.726Z,13.08
2022-09-26T18:11:28.190Z,13.37
2022-09-26T18:13:56.896Z,12.91
2022-09-26T18:16:25.182Z,13.13
2022-09-26T18:18:53.301Z,13.34
2022-09-26T18:21:21.757Z,12.86
2022-09-26T18:23:53.103Z,13.06
2022-09-26T18:26:28.382Z,13.38
2022-09-26T18:28:57.804Z,13.40
2022-09-26T18:31:29.683Z,13.03
2022-09-26T18:33:58.217Z,13.37
2022-09-26T18:36:27.255Z,13.24
2022-09-26T18:38:55.056Z,13.44
2022-09-26T18:41:26.583Z,13.93
2022-09-26T18:43:56.886Z,13.47
2022-09-26T18:46:24.826Z,13.13
2022-09-26T18:48:58.343Z,13.14
2022-09-26T18:51:26.688Z,13.22
2022-09-26T18:53:54.709Z,13.32
2022-09-26T18:56:41.613Z,13.25
2022-09-26T18:59:10.342Z,13.29
2022-09-26T19:01:42.830Z,13.05
2022-09-26T19:04:15.929Z,13.39
2022-09-26T19:06:47.027Z,13.24
2022-09-26T19:09:16.786Z,13.14
2022-09-26T19:11:46.383Z,13.30
2022-09-26T19:14:16.499Z,13.31
2022-09-26T19:16:46.039Z,13.24
2022-09-26T19:19:14.731Z,13.43
2022-09-26T19:21:44.473Z,13.43
2022-09-26T19:24:20.748Z,12.91
2022-09-26T19:26:53.021Z,12.89
2022-09-26T19:29:28.257Z,13.10
2022-09-26T19:31:56.357Z,13.50
2022-09-26T19:34:24.857Z,13.59
2022-09-26T19:36:53.802Z,12.96
2022-09-26T19:39:21.772Z,13.14
2022-09-26T19:41:51.145Z,12.85
2022-09-26T19:44:19.098Z,13.25
2022-09-26T19:46:48.349Z,13.26
2022-09-26T19:49:18.777Z,12.97
2022-09-26T19:51:46.959Z,13.30
2022-09-26T19:54:19.657Z,12.81
2022-09-26T19:56:48.078Z,13.07
2022-09-26T19:59:17.801Z,13.04
2022-09-26T20:01:47.517Z,13.16
2022-09-26T20:04:17.743Z,13.13
2022-09-26T20:06:45.965Z,13.18
2022-09-26T20:09:16.940Z,12.76
2022-09-26T20:11:45.017Z,13.10
2022-09-26T20:14:24.841Z,13.01
2022-09-26T20:16:56.329Z,12.80
2022-09-26T20:19:31.500Z,13.10
2022-09-26T20:22:01.981Z,12.91
2022-09-26T20:24:32.028Z,13.27
2022-09-26T20:27:02.754Z,12.72
2022-09-26T20:29:50.760Z,13.23
2022-09-26T20:32:20.195Z,13.26
2022-09-26T20:34:48.289Z,13.24
2022-09-26T20:37:16.451Z,13.17
2022-09-26T20:39:45.012Z,12.86
2022-09-26T20:42:18.592Z,12.95
2022-09-26T20:44:49.758Z,12.90
2022-09-26T20:47:21.364Z,12.45
2022-09-26T20:49:54.807Z,12.71
2022-09-26T20:52:24.926Z,13.20
2022-09-26T20:54:53.220Z,13.05
2022-09-26T20:57:22.195Z,13.03
2022-09-26T20:59:50.526Z,12.67
2022-09-26T21:02:26.846Z,13.12
2022-09-26T21:04:55.295Z,13.16
2022-09-26T21:07:24.327Z,13.11
2022-09-26T21:09:52.306Z,13.39
2022-09-26T21:12:20.347Z,13.19
2022-09-26T21:14:48.367Z,13.28
2022-09-26T21:17:20.399Z,13.33
2022-09-26T21:19:51.454Z,13.21
2022-09-26T21:22:21.848Z,12.84
2022-09-26T21:24:50.266Z,12.74
2022-09-26T21:27:18.297Z,13.03
2022-09-26T21:29:46.876Z,12.61
2022-09-26T21:32:18.280Z,13.01
2022-09-26T21:34:55.565Z,13.07
2022-09-26T21:37:23.646Z,12.97
2022-09-26T21:39:51.732Z,12.96
2022-09-26T21:42:19.594Z,13.25
2022-09-26T21:44:54.196Z,13.00
2022-09-26T21:47:22.017Z,13.23
2022-09-26T21:49:50.205Z,12.95
2022-09-26T21:52:23.440Z,13.09
2022-09-26T21:54:52.436Z,13.20
2022-09-26T21:57:24.897Z,13.20
2022-09-26T21:59:54.192Z,12.92
2022-09-26T22:02:22.060Z,12.74
2022-09-26T22:04:49.972Z,13.48
2022-09-26T22:07:19.293Z,13.48
2022-09-26T22:09:47.539Z,13.03
2022-09-26T22:12:15.528Z,13.07
2022-09-26T22:14:43.643Z,13.07
2022-09-26T22:17:11.967Z,12.91
2022-09-26T22:19:39.842Z,13.23
2022-09-26T22:22:07.673Z,13.08
2022-09-26T22:24:37.123Z,13.26
2022-09-26T22:27:05.468Z,13.32
2022-09-26T22:29:33.740Z,13.35
2022-09-26T22:32:03.859Z,13.14
2022-09-26T22:34:32.554Z,13.02
2022-09-26T22:37:00.517Z,13.49
2022-09-26T22:39:28.572Z,13.77
2022-09-26T22:41:57.970Z,13.06
2022-09-26T22:44:25.966Z,13.48
2022-09-26T22:46:53.862Z,13.53
2022-09-26T22:49:21.818Z,13.47
2022-09-26T22:51:49.790Z,13.47
2022-09-26T22:54:17.649Z,13.39
2022-09-26T22:56:45.430Z,13.40
2022-09-26T22:59:15.047Z,13.65
2022-09-26T23:01:43.307Z,13.56
2022-09-26T23:04:11.534Z,13.38
2022-09-26T23:10:22.162Z,13.18
2022-09-26T23:12:50.689Z,13.13
2022-09-26T23:15:20.525Z,13.35
2022-09-26T23:17:48.631Z,13.19
2022-09-26T23:20:16.815Z,12.94
2022-09-26T23:22:44.652Z,13.37
2022-09-26T23:25:13.582Z,13.50
2022-09-26T23:27:41.343Z,13.56
2022-09-26T23:30:10.077Z,13.30
2022-09-26T23:32:39.277Z,13.48
2022-09-26T23:35:07.873Z,13.65
2022-09-26T23:37:35.654Z,13.66
2022-09-26T23:40:03.602Z,13.71
2022-09-26T23:42:31.512Z,13.62
2022-09-26T23:44:59.903Z,13.59
2022-09-26T23:47:27.661Z,13.56
2022-09-26T23:49:56.947Z,13.36
2022-09-26T23:52:24.728Z,13.41
2022-09-26T23:54:52.560Z,13.26
2022-09-26T23:57:20.388Z,12.90
2022-09-26T23:59:48.138Z,13.34
